Skip to main content

NOAA/GLERL Met Station at Michigan City, IN

Previous 3 Hours (2 minute increments)
See also Previous 5 Days (top of hour)
Jump down to Data
Switch to [English][Metric]
Zoom: Click and drag, Pan: shift-click and drag, Unzoom: double-click, Unzoom All




See also 1-day windrose plot


NOAA/GLERL Met Station at Michigan City, IN

Previous 3 Hours (2 minute increments)
See also Previous 5 Days (top of hour only)
Jump up to Graphs
Switch to [English][Metric]
                  Wind  Wind  Wind   Air   Dew   Rel     Sta   PAR
                   Spd   Gst   Dir  Temp    Pt   Hum    Pres uE/m2/
YYYY-MM-DD   CST   m/s   m/s   deg     C     C     %      mb   sec
2018-02-24 15:52   7.2   9.2   100   5.1   2.6  84.0    0.00     0
2018-02-24 15:50   8.6  10.2   103   5.1   2.6  83.9    0.00     0
2018-02-24 15:48   7.5  10.8    93   5.1   2.6  83.9    0.00     0
2018-02-24 15:46   6.1   7.8   100   5.1   2.6  83.6    0.00     0
2018-02-24 15:44   8.0   9.5   103   5.1   2.6  83.7    0.00     0
2018-02-24 15:42   6.9   8.3   109   5.1   2.5  83.5    0.00     0
2018-02-24 15:40   6.7   8.1    97   5.2   2.6  83.4    0.00     0
2018-02-24 15:38   7.5  11.1    88   5.2   2.6  83.2    0.00     0
2018-02-24 15:36   7.6   9.8    89   5.2   2.6  83.2    0.00     0
2018-02-24 15:34   7.8  10.0    88   5.2   2.6  83.0    0.00     0
2018-02-24 15:32   7.5  10.7    93   5.2   2.6  83.1    0.00     0
2018-02-24 15:30   7.0   8.2    99   5.1   2.5  83.1    0.00     0
2018-02-24 15:28   7.7   9.8    93   5.1   2.5  83.0    0.00     0
2018-02-24 15:26   8.7  11.0    89   5.1   2.5  83.0    0.00     0
2018-02-24 15:24   9.0  12.1    77   5.1   2.5  83.1    0.00     0
2018-02-24 15:22   7.8   9.3    77   5.1   2.5  83.0    0.00     0
2018-02-24 15:20   7.4   8.9    81   5.1   2.4  82.8    0.00     0
2018-02-24 15:18   6.4   7.8    80   5.1   2.4  82.8    0.00     0
2018-02-24 15:16   6.1   7.6    84   5.1   2.4  82.7    0.00     0
2018-02-24 15:14   7.5   8.8    87   5.1   2.4  82.6    0.00     0
2018-02-24 15:12   8.2   9.5    94   5.1   2.4  82.5    0.00     0
2018-02-24 15:10   7.6   9.4    89   5.1   2.4  82.4    0.00     0
2018-02-24 15:08   6.4   8.8    93   5.1   2.4  82.4    0.00     0
2018-02-24 15:06   8.8  10.5    82   5.1   2.4  82.4    0.00     0
2018-02-24 15:04   7.9  10.3    86   5.1   2.3  82.3    0.00     0
2018-02-24 15:02   5.3   7.7    84   5.1   2.4  82.4    0.00     0
2018-02-24 15:00   5.5   7.2    97   5.1   2.3  82.3    0.00     0
2018-02-24 14:58   5.4   6.4    96   5.1   2.3  82.3    0.00     0
2018-02-24 14:56   5.2   6.7    89   5.0   2.3  82.4    0.00     0
2018-02-24 14:54   4.3   5.3    92   5.1   2.3  81.9    0.00     0
2018-02-24 14:52   6.0   7.1   101   5.1   2.3  82.1    0.00     0
2018-02-24 14:50   7.6   9.1   101   5.0   2.2  82.2    0.00     0
2018-02-24 14:48   7.8   9.9    95   5.1   2.3  82.0    0.00     0
2018-02-24 14:46   5.8   6.9    93   5.1   2.3  81.8    0.00     0
2018-02-24 14:44   6.9   8.2    88   5.1   2.2  81.5    0.00     0
2018-02-24 14:42   6.6   8.7    82   5.2   2.3  81.3    0.00     0
2018-02-24 14:40   4.1   5.4    98   5.2   2.3  81.5    0.00     0
2018-02-24 14:38   5.7   7.5    88   5.2   2.3  81.2    0.00     0
2018-02-24 14:36   7.4   8.6    93   5.2   2.2  80.9    0.00     0
2018-02-24 14:34   6.7   7.8    92   5.3   2.3  80.8    0.00     0
2018-02-24 14:32   6.6   9.1   107   5.3   2.3  80.9    0.00     0
2018-02-24 14:30   7.1   9.7    87   5.3   2.2  80.5    0.00     0
2018-02-24 14:28   6.4   8.0    84   5.3   2.2  80.4    0.00     0
2018-02-24 14:26   5.6   7.3    94   5.4   2.3  80.4    0.00     0
2018-02-24 14:24   6.2   7.8   106   5.3   2.2  80.3    0.00     0
2018-02-24 14:22   4.6   7.3   106   5.4   2.2  80.0    0.00     0
2018-02-24 14:20   4.9   5.8    89   5.4   2.3  80.2    0.00     0
2018-02-24 14:18   5.5   6.7   103   5.4   2.3  80.2    0.00     0
2018-02-24 14:16   5.4   7.0   104   5.4   2.3  80.3    0.00     0
2018-02-24 14:14   5.2   6.8   108   5.4   2.3  80.3    0.00     0
2018-02-24 14:12   6.2   8.4   111   5.4   2.3  80.2    0.00     0
2018-02-24 14:10   8.7  10.8   101   5.4   2.2  79.8    0.00     0
2018-02-24 14:08   7.1   8.7    85   5.4   2.2  79.7    0.00     0
2018-02-24 14:06   7.1   9.2    85   5.5   2.3  79.6    0.00     0
2018-02-24 14:04   7.1   8.7    78   5.5   2.2  79.4    0.00     0
2018-02-24 14:02   5.6   7.6    87   5.5   2.2  79.4    0.00     0
2018-02-24 14:00   6.2   7.5    97   5.5   2.2  79.4    0.00     0
2018-02-24 13:58   6.8   8.3    84   5.5   2.2  79.3    0.00     0
2018-02-24 13:56   6.0   8.3    84   5.5   2.2  79.0    0.00     0
2018-02-24 13:54   6.6   8.6    92   5.5   2.1  78.9    0.00     0
2018-02-24 13:52   6.8   9.5    90   5.5   2.1  78.8    0.00     0
2018-02-24 13:50   6.8   9.3    86   5.5   2.1  78.7    0.00     0
2018-02-24 13:48   6.7   8.8    85   5.5   2.1  78.6    0.00     0
2018-02-24 13:46   7.0   8.3    82   5.6   2.1  78.3    0.00     0
2018-02-24 13:44   5.9   8.1    93   5.6   2.2  78.5    0.00     0
2018-02-24 13:42   6.2   7.9    95   5.6   2.1  78.3    0.00     0
2018-02-24 13:40   7.1   8.0    82   5.6   2.1  78.2    0.00     0
2018-02-24 13:38   5.8   7.2    89   5.6   2.1  78.3    0.00     0
2018-02-24 13:36   7.0   7.8    91   5.5   2.0  78.2    0.00     0
2018-02-24 13:34   5.5   6.8    83   5.6   2.1  78.2    0.00     0
2018-02-24 13:32   5.6   7.1    75   5.5   2.1  78.5    0.00     0
2018-02-24 13:30   6.7   9.1    73   5.5   2.0  78.1    0.00     0
2018-02-24 13:28   6.9   8.2    73   5.4   2.0  78.5    0.00     0
2018-02-24 13:26   7.2   8.8    71   5.4   1.9  78.1    0.00     0
2018-02-24 13:24   5.7   7.5    76   5.5   1.9  77.8    0.00     0
2018-02-24 13:22   6.2   8.4    94   5.5   2.0  78.0    0.00     0
2018-02-24 13:20   6.0   7.4    95   5.5   2.0  77.9    0.00     0
2018-02-24 13:18   5.1   6.9    89   5.5   1.9  77.8    0.00     0
2018-02-24 13:16   5.5   7.4    86   5.5   1.9  77.7    0.00     0
2018-02-24 13:14   7.8   9.3    81   5.4   1.8  77.7    0.00     0
2018-02-24 13:12   5.4   7.1    89   5.5   1.9  77.7    0.00     0
2018-02-24 13:10   7.3   9.3    90   5.4   1.8  77.6    0.00     0
2018-02-24 13:08   6.3   8.6    81   5.4   1.8  77.5    0.00     0
2018-02-24 13:06   6.6   8.0    73   5.4   1.8  77.5    0.00     0
2018-02-24 13:04   6.2   8.0    84   5.4   1.8  77.4    0.00     0
2018-02-24 13:02   5.4   7.4    87   5.4   1.8  77.5    0.00     0
2018-02-24 13:00   6.3   7.8    94   5.3   1.8  78.0    0.00     0
2018-02-24 12:58   6.2   8.1    84   5.3   1.8  77.9    0.00     0
2018-02-24 12:56   7.6   9.8    91   5.3   1.7  77.6    0.00     0
2018-02-24 12:54   7.9  11.7    81   5.3   1.7  77.3    0.00     0
2018-02-24 12:52   6.3   8.2    78   5.4   1.7  77.0    0.00     0